createdAt,value
2017-08-31T00:00:17.893Z,20.89
2017-08-31T00:01:18.789Z,20.88
2017-08-31T00:02:17.973Z,20.87
2017-08-31T00:03:17.991Z,20.88
2017-08-31T00:04:17.863Z,20.87
2017-08-31T00:05:18.331Z,20.86
2017-08-31T00:06:18.361Z,20.86
2017-08-31T00:07:17.917Z,20.87
2017-08-31T00:08:18.058Z,20.87
2017-08-31T00:09:18.310Z,20.87
2017-08-31T00:10:17.910Z,20.87
2017-08-31T00:11:17.923Z,20.85
2017-08-31T00:12:17.874Z,20.85
2017-08-31T00:13:18.034Z,20.85
2017-08-31T00:14:18.829Z,20.82
2017-08-31T00:15:18.311Z,20.81
2017-08-31T00:16:17.877Z,20.81
2017-08-31T00:17:17.858Z,20.81
2017-08-31T00:18:18.826Z,20.79
2017-08-31T00:19:17.866Z,20.78
2017-08-31T00:20:17.862Z,20.73
2017-08-31T00:21:18.407Z,20.71
2017-08-31T00:22:17.868Z,20.71
2017-08-31T00:23:18.011Z,20.70
2017-08-31T00:24:18.327Z,20.70
2017-08-31T00:25:17.852Z,20.70
2017-08-31T00:26:18.488Z,20.67
2017-08-31T00:27:17.863Z,20.65
2017-08-31T00:28:18.113Z,20.67
2017-08-31T00:29:18.336Z,20.64
2017-08-31T00:30:17.904Z,20.64
2017-08-31T00:31:17.854Z,20.63
2017-08-31T00:32:17.885Z,20.62
2017-08-31T00:33:18.010Z,20.61
2017-08-31T00:34:18.506Z,20.61
2017-08-31T00:35:18.014Z,20.61
2017-08-31T00:36:17.844Z,20.61
2017-08-31T00:37:17.902Z,20.60
2017-08-31T00:38:17.870Z,20.57
2017-08-31T00:39:17.907Z,20.53
2017-08-31T00:40:18.364Z,20.53
2017-08-31T00:41:17.887Z,20.50
2017-08-31T00:42:17.851Z,20.46
2017-08-31T00:43:18.600Z,20.44
2017-08-31T00:44:17.920Z,20.39
2017-08-31T00:45:17.888Z,20.34
2017-08-31T00:46:17.964Z,20.26
2017-08-31T00:47:18.452Z,20.19
2017-08-31T00:48:17.861Z,20.11
2017-08-31T00:49:17.882Z,20.07
2017-08-31T00:50:18.417Z,20.06
2017-08-31T00:51:17.818Z,20.07
2017-08-31T00:52:17.838Z,20.10
2017-08-31T00:53:17.829Z,20.11
2017-08-31T00:54:17.887Z,20.12
2017-08-31T00:55:17.790Z,20.12
2017-08-31T00:56:17.828Z,20.13
2017-08-31T00:57:17.963Z,20.17
2017-08-31T00:58:17.847Z,20.20
2017-08-31T00:59:17.851Z,20.22
2017-08-31T01:00:17.861Z,20.25
2017-08-31T01:01:18.401Z,20.25
2017-08-31T01:02:17.827Z,20.22
2017-08-31T01:03:17.865Z,20.22
2017-08-31T01:04:17.875Z,20.20
2017-08-31T01:05:18.401Z,20.20
2017-08-31T01:06:17.888Z,20.20
2017-08-31T01:07:17.837Z,20.20
2017-08-31T01:08:17.890Z,20.20
2017-08-31T01:09:18.899Z,20.20
2017-08-31T01:10:18.411Z,20.18
2017-08-31T01:11:17.795Z,20.13
2017-08-31T01:12:17.829Z,20.12
2017-08-31T01:13:17.797Z,20.09
2017-08-31T01:14:17.900Z,20.06
2017-08-31T01:15:18.416Z,20.05
2017-08-31T01:16:17.931Z,20.05
2017-08-31T01:17:17.809Z,20.02
2017-08-31T01:18:17.899Z,20.03
2017-08-31T01:19:17.898Z,20.04
2017-08-31T01:20:18.420Z,20.04
2017-08-31T01:21:17.856Z,20.05
2017-08-31T01:22:18.425Z,20.04
2017-08-31T01:23:17.799Z,20.04
2017-08-31T01:24:17.965Z,20.04
2017-08-31T01:25:17.849Z,20.04
2017-08-31T01:26:17.794Z,20.03
2017-08-31T01:27:17.841Z,20.02
2017-08-31T01:28:17.923Z,20.01
2017-08-31T01:29:17.853Z,20.00
2017-08-31T01:30:17.823Z,19.96
2017-08-31T01:31:17.828Z,19.96
2017-08-31T01:32:17.810Z,20.01
2017-08-31T01:33:18.459Z,20.01
2017-08-31T01:34:18.440Z,20.03
2017-08-31T01:35:17.870Z,20.09
2017-08-31T01:36:17.803Z,20.12
2017-08-31T01:37:17.915Z,20.19
2017-08-31T01:38:18.086Z,20.22
2017-08-31T01:39:17.858Z,20.22
2017-08-31T01:40:17.913Z,20.23
2017-08-31T01:41:17.824Z,20.25
2017-08-31T01:42:17.904Z,20.22
2017-08-31T01:43:17.853Z,20.20
2017-08-31T01:44:17.831Z,20.20
2017-08-31T01:45:17.920Z,20.18
2017-08-31T01:46:18.466Z,20.12
2017-08-31T01:47:17.815Z,20.11
2017-08-31T01:48:18.576Z,20.10
2017-08-31T01:49:17.851Z,20.11
2017-08-31T01:50:17.881Z,20.10
2017-08-31T01:51:18.487Z,20.13
2017-08-31T01:52:17.876Z,20.14
2017-08-31T01:53:19.509Z,20.14
2017-08-31T01:54:17.843Z,20.12
2017-08-31T01:55:18.475Z,20.11
2017-08-31T01:56:18.653Z,20.09
2017-08-31T01:57:17.897Z,20.07
2017-08-31T01:58:17.829Z,20.05
2017-08-31T01:59:18.480Z,20.06
2017-08-31T02:00:17.835Z,20.11
2017-08-31T02:01:17.899Z,20.12
2017-08-31T02:02:17.852Z,20.18
2017-08-31T02:03:19.496Z,20.19
2017-08-31T02:04:17.849Z,20.21
2017-08-31T02:05:17.902Z,20.22
2017-08-31T02:06:17.786Z,20.26
2017-08-31T02:07:17.846Z,20.28
2017-08-31T02:08:17.789Z,20.30
2017-08-31T02:09:17.774Z,20.32
2017-08-31T02:10:17.947Z,20.34
2017-08-31T02:11:17.891Z,20.37
2017-08-31T02:12:18.641Z,20.39
2017-08-31T02:13:18.525Z,20.42
2017-08-31T02:14:17.834Z,20.43
2017-08-31T02:15:17.844Z,20.43
2017-08-31T02:16:17.900Z,20.44
2017-08-31T02:17:17.777Z,20.44
2017-08-31T02:18:17.782Z,20.45
2017-08-31T02:19:17.896Z,20.45
2017-08-31T02:20:17.881Z,20.45
2017-08-31T02:21:17.900Z,20.45
2017-08-31T02:22:17.844Z,20.47
2017-08-31T02:23:18.527Z,20.47
2017-08-31T02:24:17.791Z,20.46
2017-08-31T02:25:17.899Z,20.48
2017-08-31T02:26:17.867Z,20.46
2017-08-31T02:27:18.029Z,20.45
2017-08-31T02:28:17.816Z,20.39
2017-08-31T02:29:18.654Z,20.38
2017-08-31T02:30:19.532Z,20.38
2017-08-31T02:31:17.922Z,20.34
2017-08-31T02:32:18.538Z,20.31
2017-08-31T02:33:17.839Z,20.29
2017-08-31T02:34:17.763Z,20.27
2017-08-31T02:35:18.543Z,20.23
2017-08-31T02:36:17.820Z,20.20
2017-08-31T02:37:18.841Z,20.14
2017-08-31T02:38:17.786Z,20.12
2017-08-31T02:39:17.912Z,20.10
2017-08-31T02:40:17.921Z,20.07
2017-08-31T02:41:18.554Z,20.06
2017-08-31T02:42:18.304Z,20.04
2017-08-31T02:43:17.889Z,20.04
2017-08-31T02:44:17.844Z,20.03
2017-08-31T02:45:17.751Z,20.02
2017-08-31T02:46:17.804Z,20.00
2017-08-31T02:47:17.846Z,19.95
2017-08-31T02:48:18.564Z,19.93
2017-08-31T02:49:17.829Z,19.87
2017-08-31T02:50:17.795Z,19.86
2017-08-31T02:51:17.825Z,19.86
2017-08-31T02:52:17.849Z,19.85
2017-08-31T02:53:17.800Z,19.88
2017-08-31T02:54:19.073Z,19.88
2017-08-31T02:55:17.795Z,19.88
2017-08-31T02:56:17.817Z,19.90
2017-08-31T02:57:18.584Z,19.94
2017-08-31T02:58:17.853Z,19.97
2017-08-31T02:59:17.808Z,20.01
2017-08-31T03:00:18.582Z,20.04
2017-08-31T03:01:17.814Z,20.04
2017-08-31T03:02:17.914Z,20.04
2017-08-31T03:03:17.847Z,20.03
2017-08-31T03:04:18.588Z,20.01
2017-08-31T03:05:17.906Z,20.00
2017-08-31T03:06:17.784Z,19.98
2017-08-31T03:07:17.816Z,19.97
2017-08-31T03:08:18.610Z,20.00
2017-08-31T03:09:17.839Z,20.01
2017-08-31T03:10:18.752Z,20.02
2017-08-31T03:11:17.816Z,20.01
2017-08-31T03:12:19.216Z,20.01
2017-08-31T03:13:17.770Z,20.01
2017-08-31T03:14:18.604Z,20.00
2017-08-31T03:15:17.813Z,20.01
2017-08-31T03:16:17.765Z,20.03
2017-08-31T03:17:17.806Z,20.04
2017-08-31T03:18:17.828Z,20.06
2017-08-31T03:19:17.888Z,20.07
2017-08-31T03:20:17.801Z,20.05
2017-08-31T03:21:17.750Z,20.05
2017-08-31T03:22:17.781Z,20.06
2017-08-31T03:23:17.812Z,20.04
2017-08-31T03:24:17.833Z,20.09
2017-08-31T03:25:17.800Z,20.11
2017-08-31T03:26:17.776Z,20.10
2017-08-31T03:27:18.632Z,20.13
2017-08-31T03:28:17.775Z,20.15
2017-08-31T03:29:17.761Z,20.12
2017-08-31T03:30:18.384Z,20.12
2017-08-31T03:31:18.657Z,20.12
2017-08-31T03:32:17.760Z,20.10
2017-08-31T03:33:17.881Z,20.09
2017-08-31T03:34:19.137Z,20.10
2017-08-31T03:35:17.762Z,20.09
2017-08-31T03:36:18.339Z,20.09
2017-08-31T03:37:17.839Z,20.09
2017-08-31T03:38:18.642Z,20.07
2017-08-31T03:39:19.644Z,20.04
2017-08-31T03:40:18.645Z,20.04
2017-08-31T03:41:17.853Z,20.05
2017-08-31T03:42:18.669Z,20.05
2017-08-31T03:43:17.835Z,20.06
2017-08-31T03:44:18.317Z,20.05
2017-08-31T03:45:17.792Z,20.05
2017-08-31T03:46:18.657Z,20.06
2017-08-31T03:47:17.765Z,20.05
2017-08-31T03:48:17.812Z,20.06
2017-08-31T03:49:17.819Z,20.06
2017-08-31T03:50:17.789Z,20.06
2017-08-31T03:51:17.736Z,20.07
2017-08-31T03:52:18.665Z,20.07
2017-08-31T03:53:17.821Z,20.07
2017-08-31T03:54:17.776Z,20.05
2017-08-31T03:55:17.737Z,20.04
2017-08-31T03:56:17.710Z,20.04
2017-08-31T03:57:17.801Z,20.04
2017-08-31T03:58:17.820Z,20.03
2017-08-31T03:59:17.809Z,20.03
2017-08-31T04:00:18.689Z,20.03
2017-08-31T04:01:18.183Z,20.04
2017-08-31T04:02:17.746Z,20.04
2017-08-31T04:03:17.875Z,20.06
2017-08-31T04:04:17.813Z,20.06
2017-08-31T04:05:17.830Z,20.05
2017-08-31T04:06:18.240Z,20.04
2017-08-31T04:07:17.806Z,20.04
2017-08-31T04:08:18.331Z,20.02
2017-08-31T04:09:18.693Z,20.00
2017-08-31T04:10:17.819Z,19.95
2017-08-31T04:11:17.788Z,19.95
2017-08-31T04:12:18.415Z,19.94
2017-08-31T04:13:17.736Z,19.95
2017-08-31T04:14:18.297Z,19.95
2017-08-31T04:15:18.205Z,19.95
2017-08-31T04:16:17.805Z,19.96
2017-08-31T04:17:17.771Z,19.98
2017-08-31T04:18:17.849Z,20.00
2017-08-31T04:19:17.819Z,20.01
2017-08-31T04:20:18.714Z,20.04
2017-08-31T04:21:17.822Z,20.04
2017-08-31T04:22:18.292Z,20.06
2017-08-31T04:23:18.235Z,20.07
2017-08-31T04:24:17.811Z,20.10
2017-08-31T04:25:18.792Z,20.10
2017-08-31T04:26:17.750Z,20.09
2017-08-31T04:27:17.802Z,20.09
2017-08-31T04:28:18.297Z,20.04
2017-08-31T04:29:17.759Z,20.01
2017-08-31T04:30:17.791Z,19.95
2017-08-31T04:31:17.801Z,19.92
2017-08-31T04:32:18.397Z,19.88
2017-08-31T04:33:17.737Z,19.86
2017-08-31T04:34:19.441Z,19.84
2017-08-31T04:35:17.787Z,19.80
2017-08-31T04:36:17.708Z,19.77
2017-08-31T04:37:18.430Z,19.73
2017-08-31T04:38:17.723Z,19.73
2017-08-31T04:39:17.865Z,19.72
2017-08-31T04:40:17.762Z,19.70
2017-08-31T04:41:18.245Z,19.69
2017-08-31T04:42:17.745Z,19.68
2017-08-31T04:43:18.752Z,19.68
2017-08-31T04:44:17.838Z,19.68
2017-08-31T04:45:18.265Z,19.68
2017-08-31T04:46:17.752Z,19.69
2017-08-31T04:47:18.258Z,19.69
2017-08-31T04:48:17.755Z,19.70
2017-08-31T04:49:17.805Z,19.73
2017-08-31T04:50:17.768Z,19.75
2017-08-31T04:51:18.266Z,19.76
2017-08-31T04:52:17.702Z,19.76
2017-08-31T04:53:17.727Z,19.77
2017-08-31T04:54:17.887Z,19.78
2017-08-31T04:55:18.266Z,19.77
2017-08-31T04:56:17.810Z,19.78
2017-08-31T04:57:17.858Z,19.78
2017-08-31T04:58:17.797Z,19.79
2017-08-31T04:59:18.439Z,19.79
2017-08-31T05:00:18.372Z,19.79
2017-08-31T05:01:17.769Z,19.79
2017-08-31T05:02:17.807Z,19.79
2017-08-31T05:03:17.718Z,19.79
2017-08-31T05:04:17.806Z,19.81
2017-08-31T05:05:17.710Z,19.82
2017-08-31T05:06:18.290Z,19.85
2017-08-31T05:07:17.705Z,19.86
2017-08-31T05:08:17.763Z,19.86
2017-08-31T05:09:17.756Z,19.87
2017-08-31T05:10:17.695Z,19.87
2017-08-31T05:11:18.302Z,19.89
2017-08-31T05:12:17.724Z,19.90
2017-08-31T05:13:17.739Z,19.90
2017-08-31T05:14:17.797Z,19.90
2017-08-31T05:15:17.719Z,19.92
2017-08-31T05:16:17.744Z,19.92
2017-08-31T05:17:17.794Z,19.92
2017-08-31T05:18:17.711Z,19.92
2017-08-31T05:19:18.316Z,19.95
2017-08-31T05:20:19.314Z,19.97
2017-08-31T05:21:17.746Z,20.01
2017-08-31T05:22:17.798Z,20.04
2017-08-31T05:23:17.757Z,20.07
2017-08-31T05:24:17.717Z,20.11
2017-08-31T05:25:18.117Z,20.12
2017-08-31T05:26:18.428Z,20.14
2017-08-31T05:27:17.740Z,20.19
2017-08-31T05:28:17.798Z,20.20
2017-08-31T05:29:18.397Z,20.20
2017-08-31T05:30:17.722Z,20.22
2017-08-31T05:31:18.325Z,20.23
2017-08-31T05:32:18.478Z,20.27
2017-08-31T05:33:18.468Z,20.29
2017-08-31T05:34:17.704Z,20.31
2017-08-31T05:35:18.345Z,20.34
2017-08-31T05:36:17.769Z,20.32
2017-08-31T05:37:18.338Z,20.32
2017-08-31T05:38:18.339Z,20.35
2017-08-31T05:39:17.735Z,20.36
2017-08-31T05:40:17.827Z,20.39
2017-08-31T05:41:17.694Z,20.38
2017-08-31T05:42:17.772Z,20.37
2017-08-31T05:43:18.347Z,20.36
2017-08-31T05:44:18.351Z,20.36
2017-08-31T05:45:17.787Z,20.32
2017-08-31T05:46:17.722Z,20.37
2017-08-31T05:47:17.696Z,20.35
2017-08-31T05:48:17.743Z,20.36
2017-08-31T05:49:17.688Z,20.34
2017-08-31T05:50:18.365Z,20.30
2017-08-31T05:51:18.462Z,20.29
2017-08-31T05:52:17.697Z,20.23
2017-08-31T05:53:17.807Z,20.20
2017-08-31T05:54:17.666Z,20.18
2017-08-31T05:55:17.753Z,20.15
2017-08-31T05:56:18.418Z,20.14
2017-08-31T05:57:17.782Z,20.12
2017-08-31T05:58:17.745Z,20.12
2017-08-31T05:59:17.687Z,20.12
2017-08-31T06:00:17.798Z,20.12
2017-08-31T06:01:18.483Z,20.11
2017-08-31T06:02:18.376Z,20.11
2017-08-31T06:03:18.401Z,20.12
2017-08-31T06:04:17.695Z,20.17
2017-08-31T06:05:17.706Z,20.18
2017-08-31T06:06:17.761Z,20.15
2017-08-31T06:07:17.775Z,20.13
2017-08-31T06:08:17.805Z,20.11
2017-08-31T06:09:17.834Z,20.11
2017-08-31T06:10:18.398Z,20.13
2017-08-31T06:11:17.704Z,20.15
2017-08-31T06:12:19.396Z,20.18
2017-08-31T06:13:17.771Z,20.20
2017-08-31T06:14:18.918Z,20.20
2017-08-31T06:15:17.705Z,20.20
2017-08-31T06:16:17.745Z,20.20
2017-08-31T06:17:17.719Z,20.21
2017-08-31T06:18:18.403Z,20.25
2017-08-31T06:19:18.405Z,20.29
2017-08-31T06:20:17.753Z,20.31
2017-08-31T06:21:17.747Z,20.35
2017-08-31T06:22:17.743Z,20.40
2017-08-31T06:23:18.412Z,20.51
2017-08-31T06:24:17.778Z,20.56
2017-08-31T06:25:17.778Z,20.63
2017-08-31T06:26:17.683Z,20.71
2017-08-31T06:27:18.921Z,20.81
2017-08-31T06:28:17.695Z,20.90
2017-08-31T06:29:17.771Z,20.95
2017-08-31T06:30:17.733Z,21.00
2017-08-31T06:31:18.923Z,21.04
2017-08-31T06:32:18.427Z,21.06
2017-08-31T06:33:17.679Z,21.04
2017-08-31T06:34:17.686Z,21.01
2017-08-31T06:35:17.736Z,21.00
2017-08-31T06:36:18.496Z,20.95
2017-08-31T06:37:17.751Z,20.87
2017-08-31T06:38:17.762Z,20.87
2017-08-31T06:39:17.749Z,20.86
2017-08-31T06:40:17.742Z,20.95
2017-08-31T06:41:18.441Z,21.06
2017-08-31T06:42:19.446Z,21.17
2017-08-31T06:43:18.449Z,21.28
2017-08-31T06:44:18.581Z,21.39
2017-08-31T06:45:17.700Z,21.42
2017-08-31T06:46:17.785Z,21.44
2017-08-31T06:47:19.073Z,21.55
2017-08-31T06:48:17.668Z,21.57
2017-08-31T06:49:17.760Z,21.59
2017-08-31T06:50:17.731Z,21.53
2017-08-31T06:51:17.712Z,21.50
2017-08-31T06:52:17.716Z,21.63
2017-08-31T06:53:18.460Z,21.77
2017-08-31T06:54:17.746Z,21.86
2017-08-31T06:55:17.714Z,21.95
2017-08-31T06:56:18.479Z,21.94
2017-08-31T06:57:18.467Z,21.94
2017-08-31T06:58:18.562Z,21.95
2017-08-31T06:59:18.562Z,21.96
2017-08-31T07:00:17.648Z,21.88
2017-08-31T07:01:17.661Z,21.77
2017-08-31T07:02:18.221Z,21.63
2017-08-31T07:03:18.475Z,21.48
2017-08-31T07:04:17.706Z,21.37
2017-08-31T07:05:18.480Z,21.25
2017-08-31T07:06:17.649Z,21.12
2017-08-31T07:07:17.704Z,21.03
2017-08-31T07:08:18.563Z,21.00
2017-08-31T07:09:18.486Z,21.01
2017-08-31T07:10:17.722Z,21.04
2017-08-31T07:11:17.716Z,21.04
2017-08-31T07:12:18.182Z,21.05
2017-08-31T07:13:17.674Z,21.09
2017-08-31T07:14:17.714Z,21.12
2017-08-31T07:15:17.679Z,21.18
2017-08-31T07:16:17.722Z,21.20
2017-08-31T07:17:17.742Z,21.30
2017-08-31T07:18:17.646Z,21.37
2017-08-31T07:19:18.503Z,21.32
2017-08-31T07:20:18.711Z,21.39
2017-08-31T07:21:18.506Z,21.37
2017-08-31T07:22:19.009Z,21.47
2017-08-31T07:23:17.715Z,21.63
2017-08-31T07:24:18.550Z,21.70
2017-08-31T07:25:17.687Z,21.55
2017-08-31T07:26:17.700Z,21.48
2017-08-31T07:27:18.619Z,21.36
2017-08-31T07:28:18.521Z,21.15
2017-08-31T07:29:17.793Z,20.94
2017-08-31T07:30:17.700Z,20.77
2017-08-31T07:31:18.676Z,20.67
2017-08-31T07:32:18.745Z,20.61
2017-08-31T07:33:17.639Z,20.55
2017-08-31T07:34:18.683Z,20.52
2017-08-31T07:35:17.714Z,20.52
2017-08-31T07:36:17.760Z,20.47
2017-08-31T07:37:17.753Z,20.46
2017-08-31T07:38:17.659Z,20.45
2017-08-31T07:39:17.682Z,20.47
2017-08-31T07:40:17.697Z,20.54
2017-08-31T07:41:17.745Z,20.70
2017-08-31T07:42:17.670Z,20.82
2017-08-31T07:43:17.737Z,20.94
2017-08-31T07:44:17.715Z,21.07
2017-08-31T07:45:17.645Z,21.12
2017-08-31T07:46:17.667Z,21.14
2017-08-31T07:47:18.232Z,21.11
2017-08-31T07:48:17.726Z,21.00
2017-08-31T07:49:18.352Z,20.77
2017-08-31T07:50:18.557Z,20.37
2017-08-31T07:51:17.676Z,20.00
2017-08-31T07:52:17.688Z,19.68
2017-08-31T07:53:17.730Z,19.54
2017-08-31T07:54:18.559Z,19.48
2017-08-31T07:55:17.721Z,19.44
2017-08-31T07:56:17.728Z,19.45
2017-08-31T07:57:17.668Z,19.31
2017-08-31T07:58:17.791Z,19.35
2017-08-31T07:59:17.781Z,19.28
2017-08-31T08:00:17.736Z,19.27
2017-08-31T08:01:17.700Z,19.12
2017-08-31T08:02:17.659Z,18.82
2017-08-31T08:03:17.689Z,18.54
2017-08-31T08:04:17.705Z,18.40
2017-08-31T08:05:18.226Z,18.29
2017-08-31T08:06:17.734Z,18.03
2017-08-31T08:07:18.589Z,17.98
2017-08-31T08:08:17.735Z,17.85
2017-08-31T08:09:17.641Z,17.87
2017-08-31T08:10:19.085Z,17.90
2017-08-31T08:11:17.721Z,17.88
2017-08-31T08:12:17.789Z,17.85
2017-08-31T08:13:19.627Z,17.75
2017-08-31T08:14:17.736Z,17.67
2017-08-31T08:15:17.695Z,17.54
2017-08-31T08:16:18.103Z,17.46
2017-08-31T08:17:18.627Z,17.40
2017-08-31T08:18:17.825Z,17.44
2017-08-31T08:19:17.651Z,17.35
2017-08-31T08:20:17.613Z,17.27
2017-08-31T08:21:18.608Z,17.27
2017-08-31T08:22:17.629Z,17.19
2017-08-31T08:23:17.740Z,17.20
2017-08-31T08:24:17.688Z,17.20
2017-08-31T08:25:17.707Z,17.22
2017-08-31T08:26:17.772Z,17.29
2017-08-31T08:27:18.113Z,17.34
2017-08-31T08:28:17.686Z,17.29
2017-08-31T08:29:17.695Z,17.28
2017-08-31T08:30:18.141Z,17.29
2017-08-31T08:31:18.121Z,17.38
2017-08-31T08:32:17.766Z,17.40
2017-08-31T08:33:18.132Z,17.43
2017-08-31T08:34:18.125Z,17.54
2017-08-31T08:35:17.660Z,17.56
2017-08-31T08:36:17.736Z,17.61
2017-08-31T08:37:17.700Z,17.53
2017-08-31T08:38:17.685Z,17.45
2017-08-31T08:39:17.706Z,17.43
2017-08-31T08:40:17.629Z,17.42
2017-08-31T08:41:17.761Z,17.40
2017-08-31T08:42:17.675Z,17.43
2017-08-31T08:43:17.683Z,17.48
2017-08-31T08:44:19.140Z,17.61
2017-08-31T08:45:17.644Z,17.77
2017-08-31T08:46:17.773Z,17.81
2017-08-31T08:47:18.145Z,17.95
2017-08-31T08:48:18.257Z,18.03
2017-08-31T08:49:17.687Z,18.00
2017-08-31T08:50:17.642Z,18.07
2017-08-31T08:51:17.602Z,18.05
2017-08-31T08:52:17.742Z,18.04
2017-08-31T08:53:17.669Z,17.97
2017-08-31T08:54:17.628Z,17.89
2017-08-31T08:55:18.159Z,17.71
2017-08-31T08:56:17.715Z,17.51
2017-08-31T08:57:18.180Z,17.43
2017-08-31T08:58:17.641Z,17.45
2017-08-31T08:59:17.701Z,17.45
2017-08-31T09:00:17.652Z,17.48
2017-08-31T09:01:17.629Z,17.55
2017-08-31T09:02:17.682Z,17.62
2017-08-31T09:03:17.686Z,17.70
2017-08-31T09:04:17.673Z,17.80
2017-08-31T09:05:17.668Z,17.85
2017-08-31T09:06:17.690Z,17.86
2017-08-31T09:07:17.661Z,17.80
2017-08-31T09:08:17.651Z,17.79
2017-08-31T09:09:17.910Z,17.85
2017-08-31T09:10:17.619Z,17.86
2017-08-31T09:11:17.675Z,17.88
2017-08-31T09:12:18.188Z,17.96
2017-08-31T09:13:18.273Z,17.94
2017-08-31T09:14:17.738Z,17.96
2017-08-31T09:15:17.617Z,17.98
2017-08-31T09:16:18.217Z,18.18
2017-08-31T09:17:18.246Z,18.20
2017-08-31T09:18:17.668Z,18.30
2017-08-31T09:19:17.753Z,18.38
2017-08-31T09:20:18.199Z,18.45
2017-08-31T09:21:17.635Z,18.38
2017-08-31T09:22:17.662Z,18.37
2017-08-31T09:23:18.207Z,18.47
2017-08-31T09:24:17.622Z,18.37
2017-08-31T09:25:18.213Z,18.47
2017-08-31T09:26:18.715Z,18.54
2017-08-31T09:27:17.654Z,18.64
2017-08-31T09:28:17.659Z,18.62
2017-08-31T09:29:17.619Z,18.84
2017-08-31T09:30:17.676Z,19.01
2017-08-31T09:31:17.638Z,19.20
2017-08-31T09:32:17.665Z,19.44
2017-08-31T09:33:17.616Z,19.61
2017-08-31T09:34:17.639Z,19.73
2017-08-31T09:35:17.926Z,19.85
2017-08-31T09:36:17.642Z,19.98
2017-08-31T09:37:17.746Z,20.09
2017-08-31T09:38:17.647Z,20.34
2017-08-31T09:39:19.234Z,20.52
2017-08-31T09:40:18.732Z,20.60
2017-08-31T09:41:17.651Z,20.51
2017-08-31T09:42:19.236Z,20.45
2017-08-31T09:43:17.640Z,20.43
2017-08-31T09:44:18.353Z,20.61
2017-08-31T09:45:17.657Z,20.62
2017-08-31T09:46:17.715Z,20.67
2017-08-31T09:47:17.677Z,20.84
2017-08-31T09:48:18.247Z,20.89
2017-08-31T09:49:17.675Z,20.88
2017-08-31T09:50:18.369Z,20.84
2017-08-31T09:51:19.461Z,20.72
2017-08-31T09:52:18.273Z,20.56
2017-08-31T09:53:18.253Z,20.61
2017-08-31T09:54:17.670Z,20.62
2017-08-31T09:55:17.697Z,20.44
2017-08-31T09:56:18.290Z,20.55
2017-08-31T09:57:18.369Z,20.73
2017-08-31T09:58:17.631Z,20.62
2017-08-31T09:59:18.268Z,21.02
2017-08-31T10:00:18.269Z,21.37
2017-08-31T10:01:17.689Z,21.46
2017-08-31T10:02:17.654Z,21.45
2017-08-31T10:03:17.728Z,21.46
2017-08-31T10:04:18.289Z,21.26
2017-08-31T10:05:17.694Z,21.15
2017-08-31T10:06:17.608Z,21.22
2017-08-31T10:07:18.279Z,21.04
2017-08-31T10:08:18.281Z,21.12
2017-08-31T10:09:17.631Z,21.37
2017-08-31T10:10:17.589Z,21.52
2017-08-31T10:11:18.811Z,21.70
2017-08-31T10:12:17.816Z,21.87
2017-08-31T10:13:17.668Z,21.76
2017-08-31T10:14:18.293Z,21.87
2017-08-31T10:15:17.621Z,22.18
2017-08-31T10:16:17.619Z,21.79
2017-08-31T10:17:17.700Z,21.47
2017-08-31T10:18:17.722Z,21.55
2017-08-31T10:19:17.667Z,21.75
2017-08-31T10:20:17.656Z,21.97
2017-08-31T10:21:18.304Z,22.04
2017-08-31T10:22:17.813Z,22.07
2017-08-31T10:23:18.337Z,22.10
2017-08-31T10:24:17.630Z,22.00
2017-08-31T10:25:18.311Z,21.82
2017-08-31T10:26:17.587Z,21.45
2017-08-31T10:27:18.815Z,21.27
2017-08-31T10:28:18.442Z,21.18
2017-08-31T10:29:17.553Z,21.10
2017-08-31T10:30:17.650Z,21.03
2017-08-31T10:31:18.320Z,20.90
2017-08-31T10:32:18.325Z,20.21
2017-08-31T10:33:19.010Z,20.15
2017-08-31T10:34:17.701Z,20.21
2017-08-31T10:35:18.348Z,20.32
2017-08-31T10:36:17.725Z,20.46
2017-08-31T10:37:18.339Z,20.37
2017-08-31T10:38:17.681Z,20.32
2017-08-31T10:39:18.339Z,20.31
2017-08-31T10:40:18.513Z,20.42
2017-08-31T10:41:19.337Z,20.37
2017-08-31T10:42:18.340Z,20.37
2017-08-31T10:43:17.647Z,20.29
2017-08-31T10:44:17.640Z,20.20
2017-08-31T10:45:19.343Z,20.07
2017-08-31T10:46:17.711Z,19.90
2017-08-31T10:47:17.674Z,19.81
2017-08-31T10:48:18.850Z,19.68
2017-08-31T10:49:17.654Z,19.52
2017-08-31T10:50:17.587Z,19.45
2017-08-31T10:51:17.724Z,19.47
2017-08-31T10:52:17.639Z,19.60
2017-08-31T10:53:18.361Z,19.78
2017-08-31T10:54:18.573Z,19.92
2017-08-31T10:55:19.383Z,20.43
2017-08-31T10:56:18.365Z,21.31
2017-08-31T10:57:17.713Z,22.04
2017-08-31T10:58:18.525Z,22.28
2017-08-31T10:59:18.141Z,22.27
2017-08-31T11:00:17.523Z,22.22
2017-08-31T11:01:18.378Z,22.06
2017-08-31T11:02:17.617Z,21.87
2017-08-31T11:03:18.498Z,21.56
2017-08-31T11:04:17.716Z,21.10
2017-08-31T11:05:17.658Z,20.82
2017-08-31T11:06:17.575Z,20.62
2017-08-31T11:07:17.627Z,20.48
2017-08-31T11:08:18.636Z,20.18
2017-08-31T11:09:19.390Z,20.05
2017-08-31T11:10:19.414Z,20.09
2017-08-31T11:11:17.673Z,20.20
2017-08-31T11:12:17.649Z,20.53
2017-08-31T11:13:18.389Z,20.97
2017-08-31T11:14:18.391Z,21.26
2017-08-31T11:15:18.394Z,21.40
2017-08-31T11:16:17.620Z,21.53
2017-08-31T11:17:17.651Z,21.29
2017-08-31T11:18:18.400Z,20.87
2017-08-31T11:19:17.797Z,20.90
2017-08-31T11:20:17.610Z,21.04
2017-08-31T11:21:17.790Z,21.05
2017-08-31T11:22:17.581Z,21.29
2017-08-31T11:23:17.539Z,21.75
2017-08-31T11:24:17.625Z,22.36
2017-08-31T11:25:20.413Z,22.87
2017-08-31T11:26:17.624Z,23.12
2017-08-31T11:27:17.598Z,23.37
2017-08-31T11:28:18.575Z,23.67
2017-08-31T11:29:18.585Z,23.92
2017-08-31T11:30:18.551Z,24.17
2017-08-31T11:31:17.626Z,24.29
2017-08-31T11:32:17.725Z,24.37
2017-08-31T11:33:18.558Z,24.07
2017-08-31T11:34:18.507Z,23.63
2017-08-31T11:35:17.698Z,23.30
2017-08-31T11:36:17.705Z,22.98
2017-08-31T11:37:17.776Z,22.67
2017-08-31T11:38:17.632Z,22.37
2017-08-31T11:39:17.559Z,22.23
2017-08-31T11:40:18.573Z,22.36
2017-08-31T11:41:18.572Z,22.60
2017-08-31T11:42:17.603Z,22.79
2017-08-31T11:43:17.660Z,22.92
2017-08-31T11:44:17.686Z,23.09
2017-08-31T11:45:17.665Z,23.20
2017-08-31T11:46:17.604Z,23.40
2017-08-31T11:47:17.674Z,23.56
2017-08-31T11:48:18.454Z,23.70
2017-08-31T11:49:18.500Z,23.64
2017-08-31T11:50:18.456Z,23.57
2017-08-31T11:51:17.599Z,23.20
2017-08-31T11:52:17.970Z,22.93
2017-08-31T11:53:17.563Z,22.72
2017-08-31T11:54:18.760Z,22.45
2017-08-31T11:55:18.466Z,22.37
2017-08-31T11:56:17.576Z,22.35
2017-08-31T11:57:18.166Z,22.10
2017-08-31T11:58:17.550Z,21.97
2017-08-31T11:59:17.579Z,21.95
2017-08-31T12:00:17.752Z,21.96
2017-08-31T12:01:17.972Z,21.95
2017-08-31T12:02:17.656Z,22.09
2017-08-31T12:03:18.507Z,22.37
2017-08-31T12:04:17.979Z,22.57
2017-08-31T12:05:17.987Z,22.78
2017-08-31T12:06:18.521Z,22.79
2017-08-31T12:07:18.019Z,22.80
2017-08-31T12:08:17.492Z,23.01
2017-08-31T12:09:17.612Z,23.28
2017-08-31T12:10:17.996Z,23.59
2017-08-31T12:11:17.688Z,23.72
2017-08-31T12:12:17.992Z,23.92
2017-08-31T12:13:17.665Z,24.09
2017-08-31T12:14:17.580Z,24.11
2017-08-31T12:15:17.561Z,24.19
2017-08-31T12:16:19.506Z,24.46
2017-08-31T12:17:18.510Z,24.98
2017-08-31T12:18:17.651Z,25.45
2017-08-31T12:19:18.026Z,25.67
2017-08-31T12:20:17.523Z,25.56
2017-08-31T12:21:18.230Z,25.55
2017-08-31T12:22:18.044Z,25.77
2017-08-31T12:23:18.145Z,25.92
2017-08-31T12:24:17.536Z,25.77
2017-08-31T12:25:17.550Z,25.21
2017-08-31T12:26:18.018Z,24.48
2017-08-31T12:27:18.020Z,24.13
2017-08-31T12:28:18.021Z,23.82
2017-08-31T12:29:17.554Z,23.76
2017-08-31T12:30:17.693Z,23.76
2017-08-31T12:31:18.527Z,23.71
2017-08-31T12:32:17.645Z,23.76
2017-08-31T12:33:17.594Z,23.77
2017-08-31T12:34:18.303Z,23.70
2017-08-31T12:35:18.242Z,23.43
2017-08-31T12:36:17.530Z,23.27
2017-08-31T12:37:17.667Z,23.05
2017-08-31T12:38:17.543Z,23.02
2017-08-31T12:39:18.043Z,23.04
2017-08-31T12:40:17.566Z,23.29
2017-08-31T12:41:17.614Z,23.42
2017-08-31T12:42:17.716Z,23.26
2017-08-31T12:43:17.649Z,23.03
2017-08-31T12:44:19.192Z,22.77
2017-08-31T12:45:17.635Z,22.43
2017-08-31T12:46:18.198Z,22.20
2017-08-31T12:47:17.583Z,22.20
2017-08-31T12:48:17.605Z,22.07
2017-08-31T12:49:17.540Z,21.94
2017-08-31T12:50:17.638Z,21.78
2017-08-31T12:51:17.530Z,21.54
2017-08-31T12:52:17.533Z,21.37